sensor_id;sensor_type;location;lat;lon;timestamp;pressure;altitude;pressure_sealevel;temperature;humidity
71791;BME280;59638;52.126;5.434;2022-08-11T00:02:34;102472.44;;;17.02;73.05
71791;BME280;59638;52.126;5.434;2022-08-11T00:05:07;102474.84;;;16.95;73.24
71791;BME280;59638;52.126;5.434;2022-08-11T00:07:49;102488.31;;;16.84;73.97
71791;BME280;59638;52.126;5.434;2022-08-11T00:10:27;102478.34;;;16.86;72.88
71791;BME280;59638;52.126;5.434;2022-08-11T00:12:57;102478.06;;;16.89;72.61
71791;BME280;59638;52.126;5.434;2022-08-11T00:15:28;102482.00;;;16.85;73.64
71791;BME280;59638;52.126;5.434;2022-08-11T00:18:02;102483.25;;;16.81;73.24
71791;BME280;59638;52.126;5.434;2022-08-11T00:20:31;102482.56;;;16.79;73.74
71791;BME280;59638;52.126;5.434;2022-08-11T00:23:17;102478.59;;;16.83;73.44
71791;BME280;59638;52.126;5.434;2022-08-11T00:25:46;102488.31;;;16.84;73.26
71791;BME280;59638;52.126;5.434;2022-08-11T00:28:28;102489.00;;;16.86;73.41
71791;BME280;59638;52.126;5.434;2022-08-11T00:30:59;102490.69;;;16.87;74.12
71791;BME280;59638;52.126;5.434;2022-08-11T00:36:13;102487.34;;;16.85;74.27
71791;BME280;59638;52.126;5.434;2022-08-11T00:38:41;102487.03;;;16.78;74.07
71791;BME280;59638;52.126;5.434;2022-08-11T00:41:35;102486.75;;;16.72;74.03
71791;BME280;59638;52.126;5.434;2022-08-11T00:44:35;102481.41;;;16.72;73.98
71791;BME280;59638;52.126;5.434;2022-08-11T00:47:26;102494.03;;;16.70;73.84
71791;BME280;59638;52.126;5.434;2022-08-11T01:12:49;102490.53;;;16.29;75.11
71791;BME280;59638;52.126;5.434;2022-08-11T01:24:27;102483.63;;;15.86;77.12
71791;BME280;59638;52.126;5.434;2022-08-11T01:38:45;102481.91;;;15.43;80.77
71791;BME280;59638;52.126;5.434;2022-08-11T01:44:59;102479.97;;;15.45;81.60
71791;BME280;59638;52.126;5.434;2022-08-11T01:47:46;102485.53;;;15.42;80.91
71791;BME280;59638;52.126;5.434;2022-08-11T01:59:34;102484.22;;;15.16;81.15
71791;BME280;59638;52.126;5.434;2022-08-11T02:05:19;102492.84;;;15.08;81.68
71791;BME280;59638;52.126;5.434;2022-08-11T02:08:02;102491.28;;;15.06;81.92
71791;BME280;59638;52.126;5.434;2022-08-11T02:10:45;102485.00;;;15.07;82.60
71791;BME280;59638;52.126;5.434;2022-08-11T02:13:46;102479.91;;;15.04;83.12
71791;BME280;59638;52.126;5.434;2022-08-11T02:16:33;102477.38;;;15.02;83.14
71791;BME280;59638;52.126;5.434;2022-08-11T02:19:48;102476.06;;;14.96;83.04
71791;BME280;59638;52.126;5.434;2022-08-11T02:22:50;102479.09;;;14.92;83.00
71791;BME280;59638;52.126;5.434;2022-08-11T02:28:57;102473.78;;;14.92;83.27
71791;BME280;59638;52.126;5.434;2022-08-11T02:34:57;102471.03;;;14.93;85.52
71791;BME280;59638;52.126;5.434;2022-08-11T02:40:16;102470.03;;;14.94;85.71
71791;BME280;59638;52.126;5.434;2022-08-11T02:42:58;102482.03;;;14.89;85.04
71791;BME280;59638;52.126;5.434;2022-08-11T02:54:16;102473.97;;;14.79;83.78
71791;BME280;59638;52.126;5.434;2022-08-11T02:59:54;102474.69;;;14.70;84.03
71791;BME280;59638;52.126;5.434;2022-08-11T03:10:25;102470.88;;;14.52;84.65
71791;BME280;59638;52.126;5.434;2022-08-11T03:16:15;102461.94;;;14.41;85.15
71791;BME280;59638;52.126;5.434;2022-08-11T03:19:20;102469.78;;;14.43;85.44
71791;BME280;59638;52.126;5.434;2022-08-11T03:22:09;102462.91;;;14.40;85.68
71791;BME280;59638;52.126;5.434;2022-08-11T03:27:38;102453.34;;;14.38;86.13
71791;BME280;59638;52.126;5.434;2022-08-11T03:30:12;102460.72;;;14.34;86.64
71791;BME280;59638;52.126;5.434;2022-08-11T03:36:12;102461.22;;;14.28;86.54
71791;BME280;59638;52.126;5.434;2022-08-11T03:41:33;102466.53;;;14.17;87.05
71791;BME280;59638;52.126;5.434;2022-08-11T03:47:42;102465.59;;;14.07;87.31
71791;BME280;59638;52.126;5.434;2022-08-11T03:50:27;102461.72;;;14.00;87.90
71791;BME280;59638;52.126;5.434;2022-08-11T03:53:08;102470.16;;;13.94;87.93
71791;BME280;59638;52.126;5.434;2022-08-11T03:56:05;102465.91;;;13.91;88.04
71791;BME280;59638;52.126;5.434;2022-08-11T04:02:15;102463.16;;;13.81;88.92
71791;BME280;59638;52.126;5.434;2022-08-11T04:05:18;102467.13;;;13.76;88.90
71791;BME280;59638;52.126;5.434;2022-08-11T04:19:04;102457.56;;;13.62;88.81
71791;BME280;59638;52.126;5.434;2022-08-11T04:27:51;102456.56;;;13.52;89.99
71791;BME280;59638;52.126;5.434;2022-08-11T04:33:58;102451.66;;;13.58;90.74
71791;BME280;59638;52.126;5.434;2022-08-11T04:36:51;102449.63;;;13.62;90.74
71791;BME280;59638;52.126;5.434;2022-08-11T04:45:52;102453.00;;;13.75;90.50
71791;BME280;59638;52.126;5.434;2022-08-11T05:10:17;102448.81;;;14.06;90.24
71791;BME280;59638;52.126;5.434;2022-08-11T05:12:50;102448.44;;;14.11;90.30
71791;BME280;59638;52.126;5.434;2022-08-11T05:15:26;102449.88;;;14.15;90.45
71791;BME280;59638;52.126;5.434;2022-08-11T05:18:21;102451.31;;;14.19;90.43
71791;BME280;59638;52.126;5.434;2022-08-11T05:21:09;102443.81;;;14.24;90.40
71791;BME280;59638;52.126;5.434;2022-08-11T05:24:03;102455.91;;;14.28;90.54
71791;BME280;59638;52.126;5.434;2022-08-11T05:26:52;102450.19;;;14.44;90.10
71791;BME280;59638;52.126;5.434;2022-08-11T05:29:43;102453.97;;;14.53;91.46
71791;BME280;59638;52.126;5.434;2022-08-11T05:32:41;102442.59;;;14.62;91.72
71791;BME280;59638;52.126;5.434;2022-08-11T05:35:42;102463.69;;;14.75;91.92
71791;BME280;59638;52.126;5.434;2022-08-11T05:38:33;102462.44;;;14.90;91.64
71791;BME280;59638;52.126;5.434;2022-08-11T05:41:24;102456.91;;;15.14;91.59
71791;BME280;59638;52.126;5.434;2022-08-11T05:44:09;102459.59;;;15.35;91.33
71791;BME280;59638;52.126;5.434;2022-08-11T05:47:02;102458.34;;;15.60;91.07
71791;BME280;59638;52.126;5.434;2022-08-11T05:49:49;102466.19;;;15.82;90.06
71791;BME280;59638;52.126;5.434;2022-08-11T05:52:45;102466.03;;;16.04;89.84
71791;BME280;59638;52.126;5.434;2022-08-11T05:55:38;102472.31;;;16.34;89.76
71791;BME280;59638;52.126;5.434;2022-08-11T05:58:37;102465.59;;;16.49;88.63
71791;BME280;59638;52.126;5.434;2022-08-11T06:01:09;102469.84;;;16.62;88.12
71791;BME280;59638;52.126;5.434;2022-08-11T06:03:37;102470.19;;;16.78;87.51
71791;BME280;59638;52.126;5.434;2022-08-11T06:06:24;102462.50;;;16.84;86.99
71791;BME280;59638;52.126;5.434;2022-08-11T06:08:55;102463.16;;;16.96;86.55
71791;BME280;59638;52.126;5.434;2022-08-11T06:11:23;102467.41;;;17.08;85.88
71791;BME280;59638;52.126;5.434;2022-08-11T06:14:10;102467.38;;;17.28;85.63
71791;BME280;59638;52.126;5.434;2022-08-11T06:16:40;102468.22;;;17.38;84.64
71791;BME280;59638;52.126;5.434;2022-08-11T06:19:07;102462.59;;;17.51;84.47
71791;BME280;59638;52.126;5.434;2022-08-11T06:21:34;102466.06;;;17.61;83.62
71791;BME280;59638;52.126;5.434;2022-08-11T06:24:10;102465.09;;;17.72;83.65
71791;BME280;59638;52.126;5.434;2022-08-11T06:26:40;102463.47;;;17.88;82.87
71791;BME280;59638;52.126;5.434;2022-08-11T06:29:27;102454.56;;;18.07;81.90
71791;BME280;59638;52.126;5.434;2022-08-11T06:32:14;102447.44;;;18.26;80.73
71791;BME280;59638;52.126;5.434;2022-08-11T06:37:34;102452.28;;;18.67;79.31
71791;BME280;59638;52.126;5.434;2022-08-11T06:42:50;102447.06;;;19.19;78.01
71791;BME280;59638;52.126;5.434;2022-08-11T06:48:17;102454.97;;;19.99;74.51
71791;BME280;59638;52.126;5.434;2022-08-11T06:50:48;102444.00;;;20.18;73.50
71791;BME280;59638;52.126;5.434;2022-08-11T06:53:35;102451.78;;;20.37;72.35
71791;BME280;59638;52.126;5.434;2022-08-11T06:56:04;102448.53;;;20.76;72.05
71791;BME280;59638;52.126;5.434;2022-08-11T06:58:50;102435.28;;;23.20;66.63
71791;BME280;59638;52.126;5.434;2022-08-11T07:01:53;102436.34;;;25.01;60.69
71791;BME280;59638;52.126;5.434;2022-08-11T07:10:50;102434.03;;;27.11;52.68
71791;BME280;59638;52.126;5.434;2022-08-11T07:13:42;102440.66;;;27.55;49.49
71791;BME280;59638;52.126;5.434;2022-08-11T07:16:29;102437.56;;;28.61;45.30
71791;BME280;59638;52.126;5.434;2022-08-11T07:19:05;102449.09;;;28.50;46.06
71791;BME280;59638;52.126;5.434;2022-08-11T07:21:52;102448.94;;;28.76;44.47
71791;BME280;59638;52.126;5.434;2022-08-11T07:24:49;102450.81;;;29.50;43.76
71791;BME280;59638;52.126;5.434;2022-08-11T07:27:45;102442.41;;;29.95;41.92
71791;BME280;59638;52.126;5.434;2022-08-11T07:30:34;102441.16;;;30.28;40.78
71791;BME280;59638;52.126;5.434;2022-08-11T07:33:03;102451.53;;;30.68;38.73
71791;BME280;59638;52.126;5.434;2022-08-11T07:35:34;102444.66;;;30.77;40.11
71791;BME280;59638;52.126;5.434;2022-08-11T07:38:07;102447.28;;;30.83;38.49
71791;BME280;59638;52.126;5.434;2022-08-11T07:40:42;102444.69;;;30.47;37.78
71791;BME280;59638;52.126;5.434;2022-08-11T07:43:11;102451.53;;;30.68;37.63
71791;BME280;59638;52.126;5.434;2022-08-11T07:45:42;102450.63;;;30.07;40.13
71791;BME280;59638;52.126;5.434;2022-08-11T07:48:29;102439.38;;;30.64;37.82
71791;BME280;59638;52.126;5.434;2022-08-11T07:51:21;102437.09;;;30.79;37.43
71791;BME280;59638;52.126;5.434;2022-08-11T07:54:06;102437.59;;;30.99;37.38
71791;BME280;59638;52.126;5.434;2022-08-11T07:56:42;102444.00;;;30.93;36.30
71791;BME280;59638;52.126;5.434;2022-08-11T07:59:21;102436.53;;;31.00;37.70
71791;BME280;59638;52.126;5.434;2022-08-11T08:02:27;102432.34;;;30.86;34.85
71791;BME280;59638;52.126;5.434;2022-08-11T08:05:13;102429.06;;;30.54;35.42
71791;BME280;59638;52.126;5.434;2022-08-11T08:08:00;102432.56;;;30.73;35.97
71791;BME280;59638;52.126;5.434;2022-08-11T08:10:45;102437.81;;;30.86;35.37
71791;BME280;59638;52.126;5.434;2022-08-11T08:13:32;102434.38;;;31.02;35.34
71791;BME280;59638;52.126;5.434;2022-08-11T08:16:19;102435.34;;;31.66;34.41
71791;BME280;59638;52.126;5.434;2022-08-11T08:19:04;102443.81;;;30.76;35.04
71791;BME280;59638;52.126;5.434;2022-08-11T08:21:31;102434.44;;;31.26;34.72
71791;BME280;59638;52.126;5.434;2022-08-11T08:23:58;102432.84;;;31.77;34.25
71791;BME280;59638;52.126;5.434;2022-08-11T08:26:26;102440.56;;;31.68;37.67
71791;BME280;59638;52.126;5.434;2022-08-11T08:29:18;102435.06;;;31.91;36.32
71791;BME280;59638;52.126;5.434;2022-08-11T08:32:04;102436.19;;;31.79;35.80
71791;BME280;59638;52.126;5.434;2022-08-11T08:34:32;102428.09;;;31.72;36.69
71791;BME280;59638;52.126;5.434;2022-08-11T08:36:59;102440.47;;;31.28;37.44
71791;BME280;59638;52.126;5.434;2022-08-11T08:39:26;102439.66;;;31.39;36.96
71791;BME280;59638;52.126;5.434;2022-08-11T08:41:55;102433.75;;;31.94;35.72
71791;BME280;59638;52.126;5.434;2022-08-11T08:44:23;102425.59;;;32.23;35.54
71791;BME280;59638;52.126;5.434;2022-08-11T08:47:13;102436.53;;;32.85;31.66
71791;BME280;59638;52.126;5.434;2022-08-11T08:50:03;102425.72;;;32.90;31.98
71791;BME280;59638;52.126;5.434;2022-08-11T08:52:36;102427.88;;;33.05;33.30
71791;BME280;59638;52.126;5.434;2022-08-11T08:55:14;102426.63;;;32.95;31.33
71791;BME280;59638;52.126;5.434;2022-08-11T08:57:42;102426.16;;;33.20;32.14
71791;BME280;59638;52.126;5.434;2022-08-11T09:00:13;102421.53;;;32.70;31.59
71791;BME280;59638;52.126;5.434;2022-08-11T09:02:48;102422.94;;;33.23;34.83
71791;BME280;59638;52.126;5.434;2022-08-11T09:05:17;102430.47;;;33.33;31.13
71791;BME280;59638;52.126;5.434;2022-08-11T09:07:46;102424.53;;;33.19;30.36
71791;BME280;59638;52.126;5.434;2022-08-11T09:10:18;102416.28;;;33.75;31.39
71791;BME280;59638;52.126;5.434;2022-08-11T09:12:45;102415.31;;;33.64;33.01
71791;BME280;59638;52.126;5.434;2022-08-11T09:15:13;102421.38;;;32.94;33.89
71791;BME280;59638;52.126;5.434;2022-08-11T09:17:51;102417.38;;;33.35;29.38
71791;BME280;59638;52.126;5.434;2022-08-11T09:20:21;102417.59;;;33.72;31.88
71791;BME280;59638;52.126;5.434;2022-08-11T09:22:50;102408.91;;;33.97;30.29
71791;BME280;59638;52.126;5.434;2022-08-11T09:25:58;102414.03;;;33.33;31.10
71791;BME280;59638;52.126;5.434;2022-08-11T09:28:45;102405.97;;;33.82;28.74
71791;BME280;59638;52.126;5.434;2022-08-11T09:31:13;102391.84;;;34.17;27.91
71791;BME280;59638;52.126;5.434;2022-08-11T09:33:41;102387.78;;;34.52;29.37
71791;BME280;59638;52.126;5.434;2022-08-11T09:36:09;102384.50;;;34.50;29.68
71791;BME280;59638;52.126;5.434;2022-08-11T09:39:03;102394.66;;;34.49;29.35
71791;BME280;59638;52.126;5.434;2022-08-11T09:41:50;102385.31;;;35.20;25.49
71791;BME280;59638;52.126;5.434;2022-08-11T09:44:29;102388.41;;;35.33;24.79
71791;BME280;59638;52.126;5.434;2022-08-11T09:47:23;102393.44;;;35.47;25.86
71791;BME280;59638;52.126;5.434;2022-08-11T09:49:54;102389.69;;;35.21;25.50
71791;BME280;59638;52.126;5.434;2022-08-11T09:52:22;102376.75;;;35.16;27.04
71791;BME280;59638;52.126;5.434;2022-08-11T09:54:50;102382.47;;;34.72;26.41
71791;BME280;59638;52.126;5.434;2022-08-11T09:57:20;102384.41;;;35.09;26.63
71791;BME280;59638;52.126;5.434;2022-08-11T10:00:11;102381.88;;;35.45;24.67
71791;BME280;59638;52.126;5.434;2022-08-11T10:02:43;102376.38;;;35.45;26.51
71791;BME280;59638;52.126;5.434;2022-08-11T10:05:14;102383.03;;;35.59;23.71
71791;BME280;59638;52.126;5.434;2022-08-11T10:08:00;102373.75;;;35.85;23.12
71791;BME280;59638;52.126;5.434;2022-08-11T10:10:28;102381.00;;;36.07;23.42
71791;BME280;59638;52.126;5.434;2022-08-11T10:13:01;102374.97;;;36.20;24.46
71791;BME280;59638;52.126;5.434;2022-08-11T10:15:30;102373.91;;;36.57;21.38
71791;BME280;59638;52.126;5.434;2022-08-11T10:18:13;102371.16;;;36.52;21.93
71791;BME280;59638;52.126;5.434;2022-08-11T10:21:11;102368.88;;;37.10;22.01
71791;BME280;59638;52.126;5.434;2022-08-11T10:23:39;102361.66;;;37.34;21.44
71791;BME280;59638;52.126;5.434;2022-08-11T10:26:31;102363.88;;;37.22;20.51
71791;BME280;59638;52.126;5.434;2022-08-11T10:29:22;102363.13;;;37.11;20.95
71791;BME280;59638;52.126;5.434;2022-08-11T10:32:26;102357.09;;;36.94;21.75
71791;BME280;59638;52.126;5.434;2022-08-11T10:35:29;102356.72;;;37.21;20.58
71791;BME280;59638;52.126;5.434;2022-08-11T10:37:57;102353.09;;;37.30;19.71
71791;BME280;59638;52.126;5.434;2022-08-11T10:40:36;102349.00;;;37.28;20.11
71791;BME280;59638;52.126;5.434;2022-08-11T10:43:03;102350.09;;;37.27;19.98
71791;BME280;59638;52.126;5.434;2022-08-11T10:45:43;102340.59;;;36.73;20.96
71791;BME280;59638;52.126;5.434;2022-08-11T10:48:34;102337.78;;;37.69;19.33
71791;BME280;59638;52.126;5.434;2022-08-11T10:51:01;102325.72;;;37.65;19.25
71791;BME280;59638;52.126;5.434;2022-08-11T10:54:00;102334.88;;;37.99;18.75
71791;BME280;59638;52.126;5.434;2022-08-11T10:56:46;102333.00;;;38.29;18.21
71791;BME280;59638;52.126;5.434;2022-08-11T10:59:32;102328.38;;;37.75;18.44
71791;BME280;59638;52.126;5.434;2022-08-11T11:01:59;102327.47;;;37.95;18.92
71791;BME280;59638;52.126;5.434;2022-08-11T11:04:32;102326.03;;;38.02;18.26
71791;BME280;59638;52.126;5.434;2022-08-11T11:07:09;102321.56;;;38.12;19.61
71791;BME280;59638;52.126;5.434;2022-08-11T11:09:45;102315.88;;;38.61;18.54
71791;BME280;59638;52.126;5.434;2022-08-11T11:12:24;102310.06;;;38.62;18.88
71791;BME280;59638;52.126;5.434;2022-08-11T11:15:12;102310.63;;;37.96;17.81
71791;BME280;59638;52.126;5.434;2022-08-11T11:18:03;102313.88;;;38.03;19.42
71791;BME280;59638;52.126;5.434;2022-08-11T11:20:41;102302.66;;;38.29;19.32
71791;BME280;59638;52.126;5.434;2022-08-11T11:26:07;102306.06;;;38.16;18.96
71791;BME280;59638;52.126;5.434;2022-08-11T11:29:19;102311.47;;;38.60;18.87
71791;BME280;59638;52.126;5.434;2022-08-11T11:37:21;102303.06;;;39.42;17.14
71791;BME280;59638;52.126;5.434;2022-08-11T11:39:48;102297.94;;;39.92;16.06
71791;BME280;59638;52.126;5.434;2022-08-11T11:42:15;102295.19;;;38.87;16.65
71791;BME280;59638;52.126;5.434;2022-08-11T11:44:44;102296.09;;;38.20;17.41
71791;BME280;59638;52.126;5.434;2022-08-11T11:47:12;102296.44;;;37.74;18.85
71791;BME280;59638;52.126;5.434;2022-08-11T11:49:41;102293.56;;;37.94;19.33
71791;BME280;59638;52.126;5.434;2022-08-11T11:52:19;102287.69;;;39.55;17.62
71791;BME280;59638;52.126;5.434;2022-08-11T11:54:49;102294.53;;;39.20;16.67
71791;BME280;59638;52.126;5.434;2022-08-11T11:57:19;102286.72;;;38.21;18.63
71791;BME280;59638;52.126;5.434;2022-08-11T12:00:09;102287.81;;;38.83;18.65
71791;BME280;59638;52.126;5.434;2022-08-11T12:03:09;102274.41;;;39.57;18.46
71791;BME280;59638;52.126;5.434;2022-08-11T12:05:37;102276.25;;;39.24;18.37
71791;BME280;59638;52.126;5.434;2022-08-11T12:08:06;102277.63;;;39.83;16.90
71791;BME280;59638;52.126;5.434;2022-08-11T12:11:01;102267.50;;;40.11;17.22
71791;BME280;59638;52.126;5.434;2022-08-11T12:13:51;102272.31;;;40.19;16.16
71791;BME280;59638;52.126;5.434;2022-08-11T12:16:19;102263.50;;;40.63;16.18
71791;BME280;59638;52.126;5.434;2022-08-11T12:19:07;102262.28;;;40.09;16.50
71791;BME280;59638;52.126;5.434;2022-08-11T12:21:34;102257.56;;;40.97;15.05
71791;BME280;59638;52.126;5.434;2022-08-11T12:24:03;102263.13;;;40.23;14.66
71791;BME280;59638;52.126;5.434;2022-08-11T12:26:54;102253.13;;;40.83;14.11
71791;BME280;59638;52.126;5.434;2022-08-11T12:29:45;102249.69;;;40.31;14.97
71791;BME280;59638;52.126;5.434;2022-08-11T12:32:20;102245.44;;;40.80;14.56
71791;BME280;59638;52.126;5.434;2022-08-11T12:34:47;102246.22;;;40.25;14.98
71791;BME280;59638;52.126;5.434;2022-08-11T12:37:19;102242.19;;;40.04;15.37
71791;BME280;59638;52.126;5.434;2022-08-11T12:39:50;102234.59;;;39.77;16.38
71791;BME280;59638;52.126;5.434;2022-08-11T12:43:02;102230.00;;;40.18;15.57
71791;BME280;59638;52.126;5.434;2022-08-11T12:46:07;102233.06;;;40.03;17.07
71791;BME280;59638;52.126;5.434;2022-08-11T12:48:36;102221.75;;;40.00;15.81
71791;BME280;59638;52.126;5.434;2022-08-11T12:51:32;102219.09;;;37.11;17.83
71791;BME280;59638;52.126;5.434;2022-08-11T12:57:19;102222.28;;;34.73;22.51
71791;BME280;59638;52.126;5.434;2022-08-11T13:00:07;102223.44;;;34.03;22.01
71791;BME280;59638;52.126;5.434;2022-08-11T13:02:53;102216.28;;;33.70;21.98
71791;BME280;59638;52.126;5.434;2022-08-11T13:05:41;102211.00;;;33.14;23.54
71791;BME280;59638;52.126;5.434;2022-08-11T13:08:11;102217.25;;;32.88;22.94
71791;BME280;59638;52.126;5.434;2022-08-11T13:10:39;102211.09;;;32.42;22.80
71791;BME280;59638;52.126;5.434;2022-08-11T13:13:25;102209.28;;;32.14;25.40
71791;BME280;59638;52.126;5.434;2022-08-11T13:16:12;102205.97;;;31.95;24.92
71791;BME280;59638;52.126;5.434;2022-08-11T13:18:41;102209.31;;;31.68;23.86
71791;BME280;59638;52.126;5.434;2022-08-11T13:21:09;102206.59;;;31.68;24.01
71791;BME280;59638;52.126;5.434;2022-08-11T13:23:45;102199.56;;;31.73;24.01
71791;BME280;59638;52.126;5.434;2022-08-11T13:26:30;102205.34;;;31.59;23.39
71791;BME280;59638;52.126;5.434;2022-08-11T13:29:16;102202.41;;;31.49;26.17
71791;BME280;59638;52.126;5.434;2022-08-11T13:31:44;102193.38;;;31.20;25.00
71791;BME280;59638;52.126;5.434;2022-08-11T13:34:11;102187.38;;;31.06;27.09
71791;BME280;59638;52.126;5.434;2022-08-11T13:36:38;102188.13;;;30.90;26.51
71791;BME280;59638;52.126;5.434;2022-08-11T13:39:06;102186.47;;;30.89;26.24
71791;BME280;59638;52.126;5.434;2022-08-11T13:41:33;102184.84;;;31.17;23.47
71791;BME280;59638;52.126;5.434;2022-08-11T13:44:10;102174.03;;;31.22;25.17
71791;BME280;59638;52.126;5.434;2022-08-11T13:46:43;102177.03;;;31.49;25.26
71791;BME280;59638;52.126;5.434;2022-08-11T13:49:15;102175.00;;;31.16;27.04
71791;BME280;59638;52.126;5.434;2022-08-11T13:51:42;102170.16;;;30.66;27.57
71791;BME280;59638;52.126;5.434;2022-08-11T13:54:20;102176.31;;;30.49;27.59
71791;BME280;59638;52.126;5.434;2022-08-11T13:56:51;102170.16;;;30.42;25.17
71791;BME280;59638;52.126;5.434;2022-08-11T13:59:19;102169.66;;;30.57;26.79
71791;BME280;59638;52.126;5.434;2022-08-11T14:01:59;102168.59;;;30.70;28.47
71791;BME280;59638;52.126;5.434;2022-08-11T14:04:54;102168.38;;;30.71;25.47
71791;BME280;59638;52.126;5.434;2022-08-11T14:07:23;102161.72;;;30.79;27.07
71791;BME280;59638;52.126;5.434;2022-08-11T14:09:57;102163.69;;;30.95;23.95
71791;BME280;59638;52.126;5.434;2022-08-11T14:12:28;102158.06;;;31.13;26.01
71791;BME280;59638;52.126;5.434;2022-08-11T14:17:42;102156.28;;;30.79;26.37
71791;BME280;59638;52.126;5.434;2022-08-11T14:20:16;102151.03;;;30.89;24.90
71791;BME280;59638;52.126;5.434;2022-08-11T14:23:04;102151.63;;;30.91;24.06
71791;BME280;59638;52.126;5.434;2022-08-11T14:25:30;102148.38;;;31.06;24.08
71791;BME280;59638;52.126;5.434;2022-08-11T14:28:17;102148.31;;;31.18;24.99
71791;BME280;59638;52.126;5.434;2022-08-11T14:31:02;102142.38;;;30.92;24.08
71791;BME280;59638;52.126;5.434;2022-08-11T14:33:31;102144.31;;;30.80;24.93
71791;BME280;59638;52.126;5.434;2022-08-11T14:36:19;102143.44;;;31.20;24.17
71791;BME280;59638;52.126;5.434;2022-08-11T14:38:46;102139.63;;;31.21;24.34
71791;BME280;59638;52.126;5.434;2022-08-11T14:41:14;102133.25;;;31.15;23.22
71791;BME280;59638;52.126;5.434;2022-08-11T14:43:59;102132.94;;;31.11;24.12
71791;BME280;59638;52.126;5.434;2022-08-11T14:46:45;102130.88;;;31.19;24.59
71791;BME280;59638;52.126;5.434;2022-08-11T14:49:52;102126.97;;;31.26;26.03
71791;BME280;59638;52.126;5.434;2022-08-11T14:52:36;102122.59;;;31.13;24.01
71791;BME280;59638;52.126;5.434;2022-08-11T14:55:04;102122.84;;;31.12;25.88
71791;BME280;59638;52.126;5.434;2022-08-11T14:57:49;102129.72;;;30.86;26.78
71791;BME280;59638;52.126;5.434;2022-08-11T15:00:22;102122.19;;;30.53;28.02
71791;BME280;59638;52.126;5.434;2022-08-11T15:02:48;102126.47;;;30.25;28.30
71791;BME280;59638;52.126;5.434;2022-08-11T15:05:35;102121.03;;;30.14;29.08
71791;BME280;59638;52.126;5.434;2022-08-11T15:08:02;102107.41;;;30.14;31.24
71791;BME280;59638;52.126;5.434;2022-08-11T15:10:29;102103.94;;;29.95;28.86
71791;BME280;59638;52.126;5.434;2022-08-11T15:12:56;102112.59;;;30.03;27.11
71791;BME280;59638;52.126;5.434;2022-08-11T15:15:24;102112.50;;;30.10;28.87
71791;BME280;59638;52.126;5.434;2022-08-11T15:18:12;102108.09;;;30.44;25.37
71791;BME280;59638;52.126;5.434;2022-08-11T15:20:43;102105.81;;;30.53;25.76
71791;BME280;59638;52.126;5.434;2022-08-11T15:23:29;102102.28;;;30.52;23.52
71791;BME280;59638;52.126;5.434;2022-08-11T15:26:37;102104.38;;;30.50;26.36
71791;BME280;59638;52.126;5.434;2022-08-11T15:29:28;102102.75;;;30.02;27.95
71791;BME280;59638;52.126;5.434;2022-08-11T15:32:15;102101.69;;;29.80;27.54
71791;BME280;59638;52.126;5.434;2022-08-11T15:34:49;102099.81;;;29.81;28.85
71791;BME280;59638;52.126;5.434;2022-08-11T15:37:36;102099.56;;;29.82;26.31
71791;BME280;59638;52.126;5.434;2022-08-11T15:40:12;102090.56;;;29.93;28.77
71791;BME280;59638;52.126;5.434;2022-08-11T15:43:06;102086.03;;;29.64;29.90
71791;BME280;59638;52.126;5.434;2022-08-11T15:45:56;102090.81;;;29.80;28.00
71791;BME280;59638;52.126;5.434;2022-08-11T15:48:34;102087.28;;;29.91;26.20
71791;BME280;59638;52.126;5.434;2022-08-11T15:51:10;102079.31;;;30.01;27.05
71791;BME280;59638;52.126;5.434;2022-08-11T15:53:44;102081.44;;;29.76;28.42
71791;BME280;59638;52.126;5.434;2022-08-11T15:56:24;102079.22;;;29.73;28.57
71791;BME280;59638;52.126;5.434;2022-08-11T15:58:52;102072.81;;;29.67;26.71
71791;BME280;59638;52.126;5.434;2022-08-11T16:01:59;102067.22;;;29.62;29.14
71791;BME280;59638;52.126;5.434;2022-08-11T16:04:58;102069.38;;;29.72;28.36
71791;BME280;59638;52.126;5.434;2022-08-11T16:07:30;102066.66;;;29.84;27.89
71791;BME280;59638;52.126;5.434;2022-08-11T16:10:05;102066.44;;;29.85;26.54
71791;BME280;59638;52.126;5.434;2022-08-11T16:12:49;102065.72;;;30.01;25.29
71791;BME280;59638;52.126;5.434;2022-08-11T16:15:31;102068.09;;;30.10;27.51
71791;BME280;59638;52.126;5.434;2022-08-11T16:18:19;102065.50;;;29.91;31.14
71791;BME280;59638;52.126;5.434;2022-08-11T16:20:49;102050.81;;;29.92;26.71
71791;BME280;59638;52.126;5.434;2022-08-11T16:23:17;102059.22;;;30.14;27.09
71791;BME280;59638;52.126;5.434;2022-08-11T16:25:45;102059.69;;;29.99;26.93
71791;BME280;59638;52.126;5.434;2022-08-11T16:28:33;102056.97;;;29.88;28.59
71791;BME280;59638;52.126;5.434;2022-08-11T16:31:01;102059.91;;;29.86;27.81
71791;BME280;59638;52.126;5.434;2022-08-11T16:33:29;102062.97;;;29.90;27.14
71791;BME280;59638;52.126;5.434;2022-08-11T16:36:17;102049.38;;;29.90;27.00
71791;BME280;59638;52.126;5.434;2022-08-11T16:39:04;102059.31;;;29.61;30.15
71791;BME280;59638;52.126;5.434;2022-08-11T16:41:34;102054.06;;;29.47;28.38
71791;BME280;59638;52.126;5.434;2022-08-11T16:44:21;102053.56;;;29.50;28.57
71791;BME280;59638;52.126;5.434;2022-08-11T16:47:12;102052.84;;;29.43;29.54
71791;BME280;59638;52.126;5.434;2022-08-11T16:49:46;102055.72;;;29.48;28.37
71791;BME280;59638;52.126;5.434;2022-08-11T16:52:19;102056.78;;;29.47;28.14
71791;BME280;59638;52.126;5.434;2022-08-11T16:54:46;102056.19;;;29.45;28.86
71791;BME280;59638;52.126;5.434;2022-08-11T16:57:24;102053.47;;;29.45;29.93
71791;BME280;59638;52.126;5.434;2022-08-11T17:00:11;102054.00;;;29.24;29.89
71791;BME280;59638;52.126;5.434;2022-08-11T17:02:49;102057.44;;;29.19;29.89
71791;BME280;59638;52.126;5.434;2022-08-11T17:05:35;102054.81;;;29.13;30.26